sensor_id;sensor_type;location;lat;lon;timestamp;temperature;humidity
54429;DHT22;40337;52.978;6.310;2023-05-18T00:02:05;8.50;99.90
54429;DHT22;40337;52.978;6.310;2023-05-18T00:04:34;8.40;99.90
54429;DHT22;40337;52.978;6.310;2023-05-18T00:07:01;8.40;99.90
54429;DHT22;40337;52.978;6.310;2023-05-18T00:09:33;8.30;99.90
54429;DHT22;40337;52.978;6.310;2023-05-18T00:11:59;8.20;99.90
54429;DHT22;40337;52.978;6.310;2023-05-18T00:14:25;8.10;99.90
54429;DHT22;40337;52.978;6.310;2023-05-18T00:16:51;8.10;99.90
54429;DHT22;40337;52.978;6.310;2023-05-18T00:19:18;8.00;99.90
54429;DHT22;40337;52.978;6.310;2023-05-18T00:21:45;7.90;99.90
54429;DHT22;40337;52.978;6.310;2023-05-18T00:24:14;7.80;99.90
54429;DHT22;40337;52.978;6.310;2023-05-18T00:26:42;7.70;99.90
54429;DHT22;40337;52.978;6.310;2023-05-18T00:29:08;7.60;99.90
54429;DHT22;40337;52.978;6.310;2023-05-18T00:31:34;7.50;99.90
54429;DHT22;40337;52.978;6.310;2023-05-18T00:34:15;7.60;99.90
54429;DHT22;40337;52.978;6.310;2023-05-18T00:36:40;7.50;99.90
54429;DHT22;40337;52.978;6.310;2023-05-18T00:39:07;7.40;99.90
54429;DHT22;40337;52.978;6.310;2023-05-18T00:41:34;7.40;99.90
54429;DHT22;40337;52.978;6.310;2023-05-18T00:44:00;7.40;99.90
54429;DHT22;40337;52.978;6.310;2023-05-18T00:46:27;7.40;99.90
54429;DHT22;40337;52.978;6.310;2023-05-18T00:48:54;7.40;99.90
54429;DHT22;40337;52.978;6.310;2023-05-18T00:51:23;7.30;99.90
54429;DHT22;40337;52.978;6.310;2023-05-18T00:53:52;7.30;99.90
54429;DHT22;40337;52.978;6.310;2023-05-18T00:56:19;7.30;99.90
54429;DHT22;40337;52.978;6.310;2023-05-18T00:58:48;7.20;99.90
54429;DHT22;40337;52.978;6.310;2023-05-18T01:01:14;7.30;99.90
54429;DHT22;40337;52.978;6.310;2023-05-18T01:03:41;7.30;99.90
54429;DHT22;40337;52.978;6.310;2023-05-18T01:06:07;7.20;99.90
54429;DHT22;40337;52.978;6.310;2023-05-18T01:08:35;7.20;99.90
54429;DHT22;40337;52.978;6.310;2023-05-18T01:13:41;7.20;99.90
54429;DHT22;40337;52.978;6.310;2023-05-18T01:16:10;7.30;99.90
54429;DHT22;40337;52.978;6.310;2023-05-18T01:18:48;7.20;99.90
54429;DHT22;40337;52.978;6.310;2023-05-18T01:21:27;7.20;99.90
54429;DHT22;40337;52.978;6.310;2023-05-18T01:26:47;7.40;99.90
54429;DHT22;40337;52.978;6.310;2023-05-18T01:29:17;7.40;99.90
54429;DHT22;40337;52.978;6.310;2023-05-18T01:31:45;7.40;99.90
54429;DHT22;40337;52.978;6.310;2023-05-18T01:34:10;7.30;99.90
54429;DHT22;40337;52.978;6.310;2023-05-18T01:36:36;7.30;99.90
54429;DHT22;40337;52.978;6.310;2023-05-18T01:39:02;7.30;99.90
54429;DHT22;40337;52.978;6.310;2023-05-18T01:41:28;7.30;99.90
54429;DHT22;40337;52.978;6.310;2023-05-18T01:49:37;7.40;99.90
54429;DHT22;40337;52.978;6.310;2023-05-18T01:52:09;7.50;99.90
54429;DHT22;40337;52.978;6.310;2023-05-18T01:54:37;7.40;99.90
54429;DHT22;40337;52.978;6.310;2023-05-18T01:57:06;7.40;99.90
54429;DHT22;40337;52.978;6.310;2023-05-18T01:59:32;7.40;99.90
54429;DHT22;40337;52.978;6.310;2023-05-18T02:01:59;7.30;99.90
54429;DHT22;40337;52.978;6.310;2023-05-18T02:04:26;7.40;99.90
54429;DHT22;40337;52.978;6.310;2023-05-18T02:06:52;7.40;99.90
54429;DHT22;40337;52.978;6.310;2023-05-18T02:09:19;7.40;99.90
54429;DHT22;40337;52.978;6.310;2023-05-18T02:11:46;7.40;99.90
54429;DHT22;40337;52.978;6.310;2023-05-18T02:14:11;7.40;99.90
54429;DHT22;40337;52.978;6.310;2023-05-18T02:16:37;7.40;99.90
54429;DHT22;40337;52.978;6.310;2023-05-18T02:19:02;7.40;99.90
54429;DHT22;40337;52.978;6.310;2023-05-18T02:21:28;7.30;99.90
54429;DHT22;40337;52.978;6.310;2023-05-18T02:23:54;7.30;99.90
54429;DHT22;40337;52.978;6.310;2023-05-18T02:26:20;7.30;99.90
54429;DHT22;40337;52.978;6.310;2023-05-18T02:28:45;7.20;99.90
54429;DHT22;40337;52.978;6.310;2023-05-18T02:31:11;7.30;99.90
54429;DHT22;40337;52.978;6.310;2023-05-18T02:33:37;7.30;99.90
54429;DHT22;40337;52.978;6.310;2023-05-18T02:36:10;7.30;99.90
54429;DHT22;40337;52.978;6.310;2023-05-18T02:38:38;7.30;99.90
54429;DHT22;40337;52.978;6.310;2023-05-18T02:41:03;7.30;99.90
54429;DHT22;40337;52.978;6.310;2023-05-18T02:43:29;7.30;99.90
54429;DHT22;40337;52.978;6.310;2023-05-18T02:45:55;7.30;99.90
54429;DHT22;40337;52.978;6.310;2023-05-18T02:48:20;7.30;99.90
54429;DHT22;40337;52.978;6.310;2023-05-18T02:50:49;7.30;99.90
54429;DHT22;40337;52.978;6.310;2023-05-18T02:53:15;7.40;99.90
54429;DHT22;40337;52.978;6.310;2023-05-18T02:55:41;7.40;99.90
54429;DHT22;40337;52.978;6.310;2023-05-18T02:58:08;7.40;99.90
54429;DHT22;40337;52.978;6.310;2023-05-18T03:00:34;7.40;99.90
54429;DHT22;40337;52.978;6.310;2023-05-18T03:03:00;7.50;99.90
54429;DHT22;40337;52.978;6.310;2023-05-18T03:05:26;7.50;99.90
54429;DHT22;40337;52.978;6.310;2023-05-18T03:07:52;7.40;99.90
54429;DHT22;40337;52.978;6.310;2023-05-18T03:10:19;7.40;99.90
54429;DHT22;40337;52.978;6.310;2023-05-18T03:12:45;7.40;99.90
54429;DHT22;40337;52.978;6.310;2023-05-18T03:15:11;7.40;99.90
54429;DHT22;40337;52.978;6.310;2023-05-18T03:17:38;7.40;99.90
54429;DHT22;40337;52.978;6.310;2023-05-18T03:20:06;7.40;99.90
54429;DHT22;40337;52.978;6.310;2023-05-18T03:22:32;7.40;99.90
54429;DHT22;40337;52.978;6.310;2023-05-18T03:24:57;7.40;99.90
54429;DHT22;40337;52.978;6.310;2023-05-18T03:27:23;7.40;99.90
54429;DHT22;40337;52.978;6.310;2023-05-18T03:29:51;7.40;99.90
54429;DHT22;40337;52.978;6.310;2023-05-18T03:32:18;7.50;99.90
54429;DHT22;40337;52.978;6.310;2023-05-18T03:34:44;7.40;99.90
54429;DHT22;40337;52.978;6.310;2023-05-18T03:37:12;7.50;99.90
54429;DHT22;40337;52.978;6.310;2023-05-18T03:39:38;7.50;99.90
54429;DHT22;40337;52.978;6.310;2023-05-18T03:42:03;7.50;99.90
54429;DHT22;40337;52.978;6.310;2023-05-18T03:44:29;7.40;99.90
54429;DHT22;40337;52.978;6.310;2023-05-18T03:46:55;7.40;99.90
54429;DHT22;40337;52.978;6.310;2023-05-18T03:49:20;7.50;99.90
54429;DHT22;40337;52.978;6.310;2023-05-18T03:51:46;7.50;99.90
54429;DHT22;40337;52.978;6.310;2023-05-18T03:54:12;7.50;99.90
54429;DHT22;40337;52.978;6.310;2023-05-18T03:56:38;7.50;99.90
54429;DHT22;40337;52.978;6.310;2023-05-18T03:59:03;7.50;99.90
54429;DHT22;40337;52.978;6.310;2023-05-18T04:01:32;7.50;99.90
54429;DHT22;40337;52.978;6.310;2023-05-18T04:03:59;7.50;99.90
54429;DHT22;40337;52.978;6.310;2023-05-18T04:06:25;7.50;99.90
54429;DHT22;40337;52.978;6.310;2023-05-18T04:08:51;7.60;99.90
54429;DHT22;40337;52.978;6.310;2023-05-18T04:11:17;7.60;99.90
54429;DHT22;40337;52.978;6.310;2023-05-18T04:13:43;7.60;99.90
54429;DHT22;40337;52.978;6.310;2023-05-18T04:16:08;7.70;99.90
54429;DHT22;40337;52.978;6.310;2023-05-18T04:18:39;7.70;99.90
54429;DHT22;40337;52.978;6.310;2023-05-18T04:21:04;7.80;99.90
54429;DHT22;40337;52.978;6.310;2023-05-18T04:23:31;7.80;99.90
54429;DHT22;40337;52.978;6.310;2023-05-18T04:25:58;7.80;99.90
54429;DHT22;40337;52.978;6.310;2023-05-18T04:28:24;7.80;99.90
54429;DHT22;40337;52.978;6.310;2023-05-18T04:30:50;7.90;99.90
54429;DHT22;40337;52.978;6.310;2023-05-18T04:33:16;7.90;99.90
54429;DHT22;40337;52.978;6.310;2023-05-18T04:35:42;7.90;99.90
54429;DHT22;40337;52.978;6.310;2023-05-18T04:38:08;7.90;99.90
54429;DHT22;40337;52.978;6.310;2023-05-18T04:40:35;8.00;99.90
54429;DHT22;40337;52.978;6.310;2023-05-18T04:43:02;8.00;99.90
54429;DHT22;40337;52.978;6.310;2023-05-18T04:45:28;8.10;99.90
54429;DHT22;40337;52.978;6.310;2023-05-18T04:47:54;8.10;99.90
54429;DHT22;40337;52.978;6.310;2023-05-18T04:50:21;8.10;99.90
54429;DHT22;40337;52.978;6.310;2023-05-18T04:52:49;8.10;99.90
54429;DHT22;40337;52.978;6.310;2023-05-18T04:55:20;8.20;99.90
54429;DHT22;40337;52.978;6.310;2023-05-18T04:57:52;8.30;99.90
54429;DHT22;40337;52.978;6.310;2023-05-18T05:00:23;8.30;99.90
54429;DHT22;40337;52.978;6.310;2023-05-18T05:02:50;8.40;99.90
54429;DHT22;40337;52.978;6.310;2023-05-18T05:05:15;8.50;99.90
54429;DHT22;40337;52.978;6.310;2023-05-18T05:07:41;8.50;99.90
54429;DHT22;40337;52.978;6.310;2023-05-18T05:10:08;8.60;99.90
54429;DHT22;40337;52.978;6.310;2023-05-18T05:12:35;8.60;99.90
54429;DHT22;40337;52.978;6.310;2023-05-18T05:15:01;8.70;99.90
54429;DHT22;40337;52.978;6.310;2023-05-18T05:17:27;8.80;99.90
54429;DHT22;40337;52.978;6.310;2023-05-18T05:19:52;8.80;99.90
54429;DHT22;40337;52.978;6.310;2023-05-18T05:22:18;8.80;99.90
54429;DHT22;40337;52.978;6.310;2023-05-18T05:24:44;9.00;99.90
54429;DHT22;40337;52.978;6.310;2023-05-18T05:27:10;9.00;99.90
54429;DHT22;40337;52.978;6.310;2023-05-18T05:29:35;9.00;99.90
54429;DHT22;40337;52.978;6.310;2023-05-18T05:32:01;9.10;99.90
54429;DHT22;40337;52.978;6.310;2023-05-18T05:34:26;9.10;99.90
54429;DHT22;40337;52.978;6.310;2023-05-18T05:36:52;9.20;99.90
54429;DHT22;40337;52.978;6.310;2023-05-18T05:39:18;9.20;99.90
54429;DHT22;40337;52.978;6.310;2023-05-18T05:41:43;9.20;99.90
54429;DHT22;40337;52.978;6.310;2023-05-18T05:44:09;9.30;99.90
54429;DHT22;40337;52.978;6.310;2023-05-18T05:46:34;9.30;99.90
54429;DHT22;40337;52.978;6.310;2023-05-18T05:49:00;9.40;99.90
54429;DHT22;40337;52.978;6.310;2023-05-18T05:51:26;9.50;99.90
54429;DHT22;40337;52.978;6.310;2023-05-18T05:53:51;9.60;99.90
54429;DHT22;40337;52.978;6.310;2023-05-18T05:56:17;9.70;99.90
54429;DHT22;40337;52.978;6.310;2023-05-18T05:58:43;9.80;99.90
54429;DHT22;40337;52.978;6.310;2023-05-18T06:01:08;9.90;99.90
54429;DHT22;40337;52.978;6.310;2023-05-18T06:03:34;10.00;99.90
54429;DHT22;40337;52.978;6.310;2023-05-18T06:06:00;10.10;99.90
54429;DHT22;40337;52.978;6.310;2023-05-18T06:08:25;10.20;99.90
54429;DHT22;40337;52.978;6.310;2023-05-18T06:10:52;10.30;99.90
54429;DHT22;40337;52.978;6.310;2023-05-18T06:13:17;10.30;99.90
54429;DHT22;40337;52.978;6.310;2023-05-18T06:15:43;10.40;99.90
54429;DHT22;40337;52.978;6.310;2023-05-18T06:18:08;10.40;99.90
54429;DHT22;40337;52.978;6.310;2023-05-18T06:20:34;10.50;99.90
54429;DHT22;40337;52.978;6.310;2023-05-18T06:22:59;10.50;99.90
54429;DHT22;40337;52.978;6.310;2023-05-18T06:25:25;10.60;99.90
54429;DHT22;40337;52.978;6.310;2023-05-18T06:27:51;10.60;99.90
54429;DHT22;40337;52.978;6.310;2023-05-18T06:30:16;10.70;99.90
54429;DHT22;40337;52.978;6.310;2023-05-18T06:32:42;10.70;99.90
54429;DHT22;40337;52.978;6.310;2023-05-18T06:35:08;10.70;99.90
54429;DHT22;40337;52.978;6.310;2023-05-18T06:37:33;10.80;99.90
54429;DHT22;40337;52.978;6.310;2023-05-18T06:39:59;10.80;99.90
54429;DHT22;40337;52.978;6.310;2023-05-18T06:42:24;10.80;99.90
54429;DHT22;40337;52.978;6.310;2023-05-18T06:44:50;10.80;99.90
54429;DHT22;40337;52.978;6.310;2023-05-18T06:47:16;10.80;99.90
54429;DHT22;40337;52.978;6.310;2023-05-18T06:49:41;10.80;99.90
54429;DHT22;40337;52.978;6.310;2023-05-18T06:52:07;11.00;99.90
54429;DHT22;40337;52.978;6.310;2023-05-18T06:54:35;11.00;99.90
54429;DHT22;40337;52.978;6.310;2023-05-18T06:57:00;11.10;99.90
54429;DHT22;40337;52.978;6.310;2023-05-18T06:59:26;11.10;99.90
54429;DHT22;40337;52.978;6.310;2023-05-18T07:01:51;11.10;99.90
54429;DHT22;40337;52.978;6.310;2023-05-18T07:04:17;11.10;99.90
54429;DHT22;40337;52.978;6.310;2023-05-18T07:06:44;11.20;99.90
54429;DHT22;40337;52.978;6.310;2023-05-18T07:09:10;11.30;99.90
54429;DHT22;40337;52.978;6.310;2023-05-18T07:11:36;11.30;99.90
54429;DHT22;40337;52.978;6.310;2023-05-18T07:14:01;11.40;99.90
54429;DHT22;40337;52.978;6.310;2023-05-18T07:16:27;11.50;99.90
54429;DHT22;40337;52.978;6.310;2023-05-18T07:18:53;11.50;99.90
54429;DHT22;40337;52.978;6.310;2023-05-18T07:21:18;11.50;99.90
54429;DHT22;40337;52.978;6.310;2023-05-18T07:23:44;11.50;99.90
54429;DHT22;40337;52.978;6.310;2023-05-18T07:26:10;11.40;99.90
54429;DHT22;40337;52.978;6.310;2023-05-18T07:28:37;11.40;99.90
54429;DHT22;40337;52.978;6.310;2023-05-18T07:31:03;11.40;99.90
54429;DHT22;40337;52.978;6.310;2023-05-18T07:33:28;11.40;99.90
54429;DHT22;40337;52.978;6.310;2023-05-18T07:35:54;11.50;99.90
54429;DHT22;40337;52.978;6.310;2023-05-18T07:38:20;11.50;99.90
54429;DHT22;40337;52.978;6.310;2023-05-18T07:40:45;11.40;99.90
54429;DHT22;40337;52.978;6.310;2023-05-18T07:43:11;11.40;99.90
54429;DHT22;40337;52.978;6.310;2023-05-18T07:45:36;11.40;99.90
54429;DHT22;40337;52.978;6.310;2023-05-18T07:48:02;11.50;99.90
54429;DHT22;40337;52.978;6.310;2023-05-18T07:50:28;11.40;99.90
54429;DHT22;40337;52.978;6.310;2023-05-18T07:52:54;11.40;99.90
54429;DHT22;40337;52.978;6.310;2023-05-18T07:55:20;11.50;99.90
54429;DHT22;40337;52.978;6.310;2023-05-18T07:57:46;11.60;99.90
54429;DHT22;40337;52.978;6.310;2023-05-18T08:00:12;11.80;99.90
54429;DHT22;40337;52.978;6.310;2023-05-18T08:02:37;12.00;99.90
54429;DHT22;40337;52.978;6.310;2023-05-18T08:05:04;12.10;99.90
54429;DHT22;40337;52.978;6.310;2023-05-18T08:07:30;12.20;99.90
54429;DHT22;40337;52.978;6.310;2023-05-18T08:09:57;12.30;99.90
54429;DHT22;40337;52.978;6.310;2023-05-18T08:12:22;12.50;99.90
54429;DHT22;40337;52.978;6.310;2023-05-18T08:14:49;12.80;99.90
54429;DHT22;40337;52.978;6.310;2023-05-18T08:17:14;13.10;99.90
54429;DHT22;40337;52.978;6.310;2023-05-18T08:19:40;13.30;99.70
54429;DHT22;40337;52.978;6.310;2023-05-18T08:22:06;13.30;99.90
54429;DHT22;40337;52.978;6.310;2023-05-18T08:24:31;13.50;99.80
54429;DHT22;40337;52.978;6.310;2023-05-18T08:26:58;13.60;99.10
54429;DHT22;40337;52.978;6.310;2023-05-18T08:29:23;13.50;98.90
54429;DHT22;40337;52.978;6.310;2023-05-18T08:31:50;13.50;99.30
54429;DHT22;40337;52.978;6.310;2023-05-18T08:34:15;13.60;99.30
54429;DHT22;40337;52.978;6.310;2023-05-18T08:36:41;13.90;98.20
54429;DHT22;40337;52.978;6.310;2023-05-18T08:39:10;14.50;98.40
54429;DHT22;40337;52.978;6.310;2023-05-18T08:41:42;14.80;96.70
54429;DHT22;40337;52.978;6.310;2023-05-18T08:44:19;15.40;96.10
54429;DHT22;40337;52.978;6.310;2023-05-18T08:46:50;15.80;96.20
54429;DHT22;40337;52.978;6.310;2023-05-18T08:49:17;15.90;95.20
54429;DHT22;40337;52.978;6.310;2023-05-18T08:51:46;16.00;94.10
54429;DHT22;40337;52.978;6.310;2023-05-18T08:54:18;16.20;93.60
54429;DHT22;40337;52.978;6.310;2023-05-18T08:56:45;16.30;92.80
54429;DHT22;40337;52.978;6.310;2023-05-18T08:59:12;16.50;92.20
54429;DHT22;40337;52.978;6.310;2023-05-18T09:01:40;16.50;92.70
54429;DHT22;40337;52.978;6.310;2023-05-18T09:04:06;16.60;92.50
54429;DHT22;40337;52.978;6.310;2023-05-18T09:06:33;16.70;91.80
54429;DHT22;40337;52.978;6.310;2023-05-18T09:09:00;16.90;91.50
54429;DHT22;40337;52.978;6.310;2023-05-18T09:11:30;17.00;90.50
54429;DHT22;40337;52.978;6.310;2023-05-18T09:13:57;16.90;89.70
54429;DHT22;40337;52.978;6.310;2023-05-18T09:16:24;16.70;90.10
54429;DHT22;40337;52.978;6.310;2023-05-18T09:18:50;16.70;91.20
54429;DHT22;40337;52.978;6.310;2023-05-18T09:21:16;16.60;90.70
54429;DHT22;40337;52.978;6.310;2023-05-18T09:23:42;16.50;90.00
54429;DHT22;40337;52.978;6.310;2023-05-18T09:26:08;16.60;89.10
54429;DHT22;40337;52.978;6.310;2023-05-18T09:28:42;16.60;89.00
54429;DHT22;40337;52.978;6.310;2023-05-18T09:31:09;16.70;87.80
54429;DHT22;40337;52.978;6.310;2023-05-18T09:33:38;16.70;87.00
54429;DHT22;40337;52.978;6.310;2023-05-18T09:36:05;16.90;87.90
54429;DHT22;40337;52.978;6.310;2023-05-18T09:38:38;16.80;89.40
54429;DHT22;40337;52.978;6.310;2023-05-18T09:41:25;16.70;88.50
54429;DHT22;40337;52.978;6.310;2023-05-18T09:43:51;16.60;86.00
54429;DHT22;40337;52.978;6.310;2023-05-18T09:46:17;16.60;88.00
54429;DHT22;40337;52.978;6.310;2023-05-18T09:48:46;16.80;88.50
54429;DHT22;40337;52.978;6.310;2023-05-18T09:51:13;16.80;87.40
54429;DHT22;40337;52.978;6.310;2023-05-18T09:53:41;16.90;90.60
54429;DHT22;40337;52.978;6.310;2023-05-18T09:56:07;17.20;88.90
54429;DHT22;40337;52.978;6.310;2023-05-18T09:58:38;17.30;87.90
54429;DHT22;40337;52.978;6.310;2023-05-18T10:01:03;17.10;86.70
54429;DHT22;40337;52.978;6.310;2023-05-18T10:03:37;17.10;85.20
54429;DHT22;40337;52.978;6.310;2023-05-18T10:06:09;17.20;85.70
54429;DHT22;40337;52.978;6.310;2023-05-18T10:08:36;17.00;83.50
54429;DHT22;40337;52.978;6.310;2023-05-18T10:11:02;17.00;85.20
54429;DHT22;40337;52.978;6.310;2023-05-18T10:13:30;17.10;86.40
54429;DHT22;40337;52.978;6.310;2023-05-18T10:16:00;17.10;86.80
54429;DHT22;40337;52.978;6.310;2023-05-18T10:18:28;17.10;85.60
54429;DHT22;40337;52.978;6.310;2023-05-18T10:20:58;17.00;86.30
54429;DHT22;40337;52.978;6.310;2023-05-18T10:23:26;16.80;86.20
54429;DHT22;40337;52.978;6.310;2023-05-18T10:25:53;16.70;86.50
54429;DHT22;40337;52.978;6.310;2023-05-18T10:28:27;16.70;85.70
54429;DHT22;40337;52.978;6.310;2023-05-18T10:30:56;16.80;87.90
54429;DHT22;40337;52.978;6.310;2023-05-18T10:33:23;16.80;89.10
54429;DHT22;40337;52.978;6.310;2023-05-18T10:35:50;16.80;90.00
54429;DHT22;40337;52.978;6.310;2023-05-18T10:38:27;16.90;89.70
54429;DHT22;40337;52.978;6.310;2023-05-18T10:40:55;17.20;88.40
54429;DHT22;40337;52.978;6.310;2023-05-18T10:43:23;17.30;88.50
54429;DHT22;40337;52.978;6.310;2023-05-18T10:45:59;17.20;89.50
54429;DHT22;40337;52.978;6.310;2023-05-18T10:48:26;17.50;88.30
54429;DHT22;40337;52.978;6.310;2023-05-18T10:50:54;17.60;86.30
54429;DHT22;40337;52.978;6.310;2023-05-18T10:53:22;17.90;88.70
54429;DHT22;40337;52.978;6.310;2023-05-18T10:55:49;18.20;87.20
54429;DHT22;40337;52.978;6.310;2023-05-18T10:58:17;18.40;86.00
54429;DHT22;40337;52.978;6.310;2023-05-18T11:00:47;18.10;85.30
54429;DHT22;40337;52.978;6.310;2023-05-18T11:03:15;18.10;86.00
54429;DHT22;40337;52.978;6.310;2023-05-18T11:05:41;18.50;86.60
54429;DHT22;40337;52.978;6.310;2023-05-18T11:08:08;19.00;89.10
54429;DHT22;40337;52.978;6.310;2023-05-18T11:13:02;19.10;81.80
54429;DHT22;40337;52.978;6.310;2023-05-18T11:18:19;19.30;83.10
54429;DHT22;40337;52.978;6.310;2023-05-18T11:20:45;19.40;82.80
54429;DHT22;40337;52.978;6.310;2023-05-18T11:23:11;19.60;82.60
54429;DHT22;40337;52.978;6.310;2023-05-18T11:25:43;19.60;79.50
54429;DHT22;40337;52.978;6.310;2023-05-18T11:28:11;19.70;78.60
54429;DHT22;40337;52.978;6.310;2023-05-18T11:33:20;19.90;77.10
54429;DHT22;40337;52.978;6.310;2023-05-18T11:36:05;19.90;74.10
54429;DHT22;40337;52.978;6.310;2023-05-18T11:44:13;20.00;78.90
54429;DHT22;40337;52.978;6.310;2023-05-18T11:46:58;20.10;76.40
54429;DHT22;40337;52.978;6.310;2023-05-18T11:49:26;20.30;78.80
54429;DHT22;40337;52.978;6.310;2023-05-18T11:52:19;20.30;76.10
54429;DHT22;40337;52.978;6.310;2023-05-18T11:54:47;20.30;75.80
54429;DHT22;40337;52.978;6.310;2023-05-18T11:57:15;20.30;75.10
54429;DHT22;40337;52.978;6.310;2023-05-18T11:59:46;20.30;72.10
54429;DHT22;40337;52.978;6.310;2023-05-18T12:02:18;20.40;71.20
54429;DHT22;40337;52.978;6.310;2023-05-18T12:04:49;20.50;73.80
54429;DHT22;40337;52.978;6.310;2023-05-18T12:07:17;20.20;73.80
54429;DHT22;40337;52.978;6.310;2023-05-18T12:09:43;19.90;72.10
54429;DHT22;40337;52.978;6.310;2023-05-18T12:12:10;19.90;75.40
54429;DHT22;40337;52.978;6.310;2023-05-18T12:14:39;20.20;77.00
54429;DHT22;40337;52.978;6.310;2023-05-18T12:17:05;20.30;71.70
54429;DHT22;40337;52.978;6.310;2023-05-18T12:19:37;20.30;72.60
54429;DHT22;40337;52.978;6.310;2023-05-18T12:22:02;20.50;71.90
54429;DHT22;40337;52.978;6.310;2023-05-18T12:24:29;20.40;72.00
54429;DHT22;40337;52.978;6.310;2023-05-18T12:26:54;20.20;74.00
54429;DHT22;40337;52.978;6.310;2023-05-18T12:29:20;20.20;73.70
54429;DHT22;40337;52.978;6.310;2023-05-18T12:31:48;20.30;75.40
54429;DHT22;40337;52.978;6.310;2023-05-18T12:34:14;20.50;72.20
54429;DHT22;40337;52.978;6.310;2023-05-18T12:37:00;20.50;70.60
54429;DHT22;40337;52.978;6.310;2023-05-18T12:39:26;20.50;68.30
54429;DHT22;40337;52.978;6.310;2023-05-18T12:41:51;20.60;69.40
54429;DHT22;40337;52.978;6.310;2023-05-18T12:44:17;20.60;70.00
54429;DHT22;40337;52.978;6.310;2023-05-18T12:46:43;20.50;68.70
54429;DHT22;40337;52.978;6.310;2023-05-18T12:49:09;20.70;70.60
54429;DHT22;40337;52.978;6.310;2023-05-18T12:51:36;20.60;72.00
54429;DHT22;40337;52.978;6.310;2023-05-18T12:54:04;20.60;70.40
54429;DHT22;40337;52.978;6.310;2023-05-18T12:56:48;20.60;71.20
54429;DHT22;40337;52.978;6.310;2023-05-18T12:59:17;20.70;71.70
54429;DHT22;40337;52.978;6.310;2023-05-18T13:01:44;20.40;71.40
54429;DHT22;40337;52.978;6.310;2023-05-18T13:04:10;20.30;71.00
54429;DHT22;40337;52.978;6.310;2023-05-18T13:06:37;20.40;70.70
54429;DHT22;40337;52.978;6.310;2023-05-18T13:09:06;20.50;73.70
54429;DHT22;40337;52.978;6.310;2023-05-18T13:11:32;20.50;70.40
54429;DHT22;40337;52.978;6.310;2023-05-18T13:14:03;20.40;69.60
54429;DHT22;40337;52.978;6.310;2023-05-18T13:16:31;20.40;69.80
54429;DHT22;40337;52.978;6.310;2023-05-18T13:18:59;20.40;68.90
54429;DHT22;40337;52.978;6.310;2023-05-18T13:21:25;20.50;69.90
54429;DHT22;40337;52.978;6.310;2023-05-18T13:23:52;20.70;72.00
54429;DHT22;40337;52.978;6.310;2023-05-18T13:26:19;20.60;69.50
54429;DHT22;40337;52.978;6.310;2023-05-18T13:28:47;20.70;70.60
54429;DHT22;40337;52.978;6.310;2023-05-18T13:31:13;20.70;70.60
54429;DHT22;40337;52.978;6.310;2023-05-18T13:33:39;20.70;69.60
54429;DHT22;40337;52.978;6.310;2023-05-18T13:36:05;20.80;71.40
54429;DHT22;40337;52.978;6.310;2023-05-18T13:38:30;20.80;69.90
54429;DHT22;40337;52.978;6.310;2023-05-18T13:41:00;20.60;70.50
54429;DHT22;40337;52.978;6.310;2023-05-18T13:43:25;20.40;71.80
54429;DHT22;40337;52.978;6.310;2023-05-18T13:45:51;20.40;72.80
54429;DHT22;40337;52.978;6.310;2023-05-18T13:48:16;20.50;70.00
54429;DHT22;40337;52.978;6.310;2023-05-18T13:50:42;20.40;69.80
54429;DHT22;40337;52.978;6.310;2023-05-18T13:53:07;20.20;69.50
54429;DHT22;40337;52.978;6.310;2023-05-18T13:55:33;20.20;71.50
54429;DHT22;40337;52.978;6.310;2023-05-18T13:57:59;20.10;71.90
54429;DHT22;40337;52.978;6.310;2023-05-18T14:00:25;19.90;72.20
54429;DHT22;40337;52.978;6.310;2023-05-18T14:02:51;19.70;71.10
54429;DHT22;40337;52.978;6.310;2023-05-18T14:05:17;19.70;72.60
54429;DHT22;40337;52.978;6.310;2023-05-18T14:07:43;19.70;73.90
54429;DHT22;40337;52.978;6.310;2023-05-18T14:10:11;19.80;71.80
54429;DHT22;40337;52.978;6.310;2023-05-18T14:12:37;20.20;74.40
54429;DHT22;40337;52.978;6.310;2023-05-18T14:15:03;20.30;73.40
54429;DHT22;40337;52.978;6.310;2023-05-18T14:17:29;20.40;70.90
54429;DHT22;40337;52.978;6.310;2023-05-18T14:19:56;20.30;71.00
54429;DHT22;40337;52.978;6.310;2023-05-18T14:22:21;20.30;72.50
54429;DHT22;40337;52.978;6.310;2023-05-18T14:24:47;20.50;75.20
54429;DHT22;40337;52.978;6.310;2023-05-18T14:27:13;20.40;72.70
54429;DHT22;40337;52.978;6.310;2023-05-18T14:29:39;20.20;71.70
54429;DHT22;40337;52.978;6.310;2023-05-18T14:32:05;20.20;71.80
54429;DHT22;40337;52.978;6.310;2023-05-18T14:34:30;20.30;71.30
54429;DHT22;40337;52.978;6.310;2023-05-18T14:36:56;20.30;70.10
54429;DHT22;40337;52.978;6.310;2023-05-18T14:39:21;20.30;72.10
54429;DHT22;40337;52.978;6.310;2023-05-18T14:41:47;20.20;73.70
54429;DHT22;40337;52.978;6.310;2023-05-18T14:44:13;20.20;72.50
54429;DHT22;40337;52.978;6.310;2023-05-18T14:46:39;20.30;74.50
54429;DHT22;40337;52.978;6.310;2023-05-18T14:49:05;20.30;72.20
54429;DHT22;40337;52.978;6.310;2023-05-18T14:51:31;20.40;71.90
54429;DHT22;40337;52.978;6.310;2023-05-18T14:53:57;20.00;73.50
54429;DHT22;40337;52.978;6.310;2023-05-18T14:56:22;19.70;74.80
54429;DHT22;40337;52.978;6.310;2023-05-18T14:58:48;19.60;74.20
54429;DHT22;40337;52.978;6.310;2023-05-18T15:01:13;19.50;74.80
54429;DHT22;40337;52.978;6.310;2023-05-18T15:03:39;19.70;77.10
54429;DHT22;40337;52.978;6.310;2023-05-18T15:06:05;19.80;76.30
54429;DHT22;40337;52.978;6.310;2023-05-18T15:08:30;19.70;77.30
54429;DHT22;40337;52.978;6.310;2023-05-18T15:10:56;19.30;76.70
54429;DHT22;40337;52.978;6.310;2023-05-18T15:13:22;19.10;77.10
54429;DHT22;40337;52.978;6.310;2023-05-18T15:15:48;19.10;77.50
54429;DHT22;40337;52.978;6.310;2023-05-18T15:18:13;19.10;75.90
54429;DHT22;40337;52.978;6.310;2023-05-18T15:20:39;19.10;78.40
54429;DHT22;40337;52.978;6.310;2023-05-18T15:23:08;19.10;78.90
54429;DHT22;40337;52.978;6.310;2023-05-18T15:25:34;18.90;79.70
54429;DHT22;40337;52.978;6.310;2023-05-18T15:28:00;19.10;80.90
54429;DHT22;40337;52.978;6.310;2023-05-18T15:30:25;18.90;80.70
54429;DHT22;40337;52.978;6.310;2023-05-18T15:32:53;19.00;82.40
54429;DHT22;40337;52.978;6.310;2023-05-18T15:35:20;19.10;79.40
54429;DHT22;40337;52.978;6.310;2023-05-18T15:37:46;19.10;80.40
54429;DHT22;40337;52.978;6.310;2023-05-18T15:40:12;19.10;80.40
54429;DHT22;40337;52.978;6.310;2023-05-18T15:42:37;19.10;80.60
54429;DHT22;40337;52.978;6.310;2023-05-18T15:45:03;19.00;80.80
54429;DHT22;40337;52.978;6.310;2023-05-18T15:47:29;18.70;81.40
54429;DHT22;40337;52.978;6.310;2023-05-18T15:49:55;18.50;80.90
54429;DHT22;40337;52.978;6.310;2023-05-18T15:52:20;18.30;82.00
54429;DHT22;40337;52.978;6.310;2023-05-18T15:54:46;18.10;83.60
54429;DHT22;40337;52.978;6.310;2023-05-18T15:57:11;18.00;85.90
54429;DHT22;40337;52.978;6.310;2023-05-18T15:59:37;18.00;86.20
54429;DHT22;40337;52.978;6.310;2023-05-18T16:02:02;18.10;87.20